createdAt,value
2023-05-16T00:01:18.274Z,11.88
2023-05-16T00:06:18.991Z,12.77
2023-05-16T00:11:21.852Z,13.15
2023-05-16T00:16:22.654Z,14.55
2023-05-16T00:21:23.821Z,13.32
2023-05-16T00:26:26.288Z,18.17
2023-05-16T00:31:27.011Z,15.35
2023-05-16T00:36:27.710Z,12.63
2023-05-16T00:41:29.894Z,14.73
2023-05-16T00:46:30.786Z,10.32
2023-05-16T00:51:31.952Z,13.55
2023-05-16T00:56:34.668Z,11.43
2023-05-16T01:01:37.560Z,15.98
2023-05-16T01:06:38.263Z,13.20
2023-05-16T01:11:52.161Z,12.75
2023-05-16T01:17:01.078Z,14.80
2023-05-16T01:22:07.355Z,14.35
2023-05-16T01:27:10.425Z,12.98
2023-05-16T01:32:11.156Z,13.13
2023-05-16T01:37:18.397Z,16.88
2023-05-16T01:42:25.444Z,14.25
2023-05-16T01:47:27.885Z,13.57
2023-05-16T01:52:36.250Z,13.00
2023-05-16T01:57:39.852Z,18.20
2023-05-16T02:02:40.668Z,14.65
2023-05-16T02:07:43.093Z,20.20
2023-05-16T02:12:45.286Z,15.90
2023-05-16T02:17:47.551Z,16.48
2023-05-16T02:22:50.178Z,15.68
2023-05-16T02:27:52.234Z,14.43
2023-05-16T02:32:54.189Z,15.95
2023-05-16T02:37:55.441Z,14.18
2023-05-16T02:42:59.898Z,21.70
2023-05-16T02:48:00.792Z,14.98
2023-05-16T02:53:02.486Z,14.75
2023-05-16T02:58:04.578Z,16.17
2023-05-16T03:03:05.741Z,16.80
2023-05-16T03:08:06.854Z,17.80
2023-05-16T03:13:09.582Z,23.92
2023-05-16T03:18:10.452Z,17.17
2023-05-16T03:23:11.164Z,17.48
2023-05-16T03:28:15.213Z,18.25
2023-05-16T03:33:16.246Z,22.25
2023-05-16T03:38:17.169Z,21.08
2023-05-16T03:43:19.285Z,19.58
2023-05-16T03:48:20.047Z,17.83
2023-05-16T03:53:21.044Z,18.50
2023-05-16T03:58:23.823Z,17.92
2023-05-16T04:03:28.626Z,17.20
2023-05-16T04:08:29.819Z,21.02
2023-05-16T04:13:31.896Z,20.35
2023-05-16T04:18:32.647Z,16.23
2023-05-16T04:23:33.388Z,19.00
2023-05-16T04:28:35.961Z,17.33
2023-05-16T04:33:37.274Z,18.50
2023-05-16T04:38:38.250Z,18.02
2023-05-16T04:43:40.687Z,20.40
2023-05-16T04:48:41.349Z,18.83
2023-05-16T04:53:42.026Z,22.05
2023-05-16T04:58:44.092Z,20.08
2023-05-16T05:03:46.923Z,18.20
2023-05-16T05:08:48.958Z,18.88
2023-05-16T05:13:52.996Z,20.02
2023-05-16T05:18:53.971Z,22.33
2023-05-16T05:23:54.746Z,26.50
2023-05-16T05:29:04.759Z,22.95
2023-05-16T05:34:06.293Z,22.48
2023-05-16T05:39:07.181Z,25.55
2023-05-16T05:44:09.279Z,24.75
2023-05-16T05:49:10.191Z,30.70
2023-05-16T05:54:11.158Z,28.98
2023-05-16T05:59:13.213Z,28.15
2023-05-16T06:04:13.911Z,30.15
2023-05-16T06:09:15.143Z,32.10
2023-05-16T06:14:17.191Z,32.25
2023-05-16T06:19:17.953Z,31.98
2023-05-16T06:24:18.725Z,35.13
2023-05-16T06:29:20.805Z,40.03
2023-05-16T06:34:23.925Z,39.45
2023-05-16T06:39:24.608Z,49.55
2023-05-16T06:44:27.105Z,43.22
2023-05-16T06:49:28.027Z,46.72
2023-05-16T06:54:28.760Z,49.17
2023-05-16T06:59:30.860Z,49.22
2023-05-16T07:04:31.850Z,50.08
2023-05-16T07:09:32.817Z,47.97
2023-05-16T07:14:34.894Z,41.22
2023-05-16T07:19:35.648Z,31.63
2023-05-16T07:24:37.131Z,31.90
2023-05-16T07:29:39.383Z,27.65
2023-05-16T07:34:40.103Z,29.73
2023-05-16T07:39:41.092Z,30.50
2023-05-16T07:44:43.128Z,27.73
2023-05-16T07:49:43.876Z,33.45
2023-05-16T07:54:44.728Z,27.45
2023-05-16T07:59:47.030Z,25.73
2023-05-16T08:04:48.885Z,22.63
2023-05-16T08:09:49.623Z,27.83
2023-05-16T08:14:52.031Z,26.40
2023-05-16T08:19:52.772Z,22.70
2023-05-16T08:24:57.704Z,26.50
2023-05-16T08:29:59.773Z,21.27
2023-05-16T08:35:01.071Z,22.48
2023-05-16T08:40:01.780Z,20.33
2023-05-16T08:45:05.478Z,23.75
2023-05-16T08:50:10.277Z,21.88
2023-05-16T08:55:12.619Z,26.52
2023-05-16T09:00:16.224Z,22.40
2023-05-16T09:05:18.934Z,16.88
2023-05-16T09:10:19.710Z,23.65
2023-05-16T09:15:22.068Z,24.30
2023-05-16T09:20:22.809Z,19.60
2023-05-16T09:25:31.099Z,19.30
2023-05-16T09:30:35.266Z,18.38
2023-05-16T09:35:44.961Z,19.50
2023-05-16T09:40:47.346Z,19.30
2023-05-16T09:45:50.433Z,20.15
2023-05-16T09:50:54.369Z,17.00
2023-05-16T09:56:02.961Z,20.00
2023-05-16T10:01:06.032Z,16.13
2023-05-16T10:06:07.874Z,15.43
2023-05-16T10:11:08.660Z,16.27
2023-05-16T10:16:13.396Z,18.15
2023-05-16T10:21:16.587Z,16.73
2023-05-16T10:26:18.509Z,12.07
2023-05-16T10:31:22.015Z,18.95
2023-05-16T10:36:22.919Z,11.75
2023-05-16T10:41:23.815Z,10.90
2023-05-16T10:46:29.190Z,12.35
2023-05-16T10:51:38.710Z,15.52
2023-05-16T10:56:39.881Z,11.52
2023-05-16T11:01:42.152Z,13.02
2023-05-16T11:06:54.719Z,12.45
2023-05-16T11:11:57.674Z,16.30
2023-05-16T11:17:04.486Z,9.43
2023-05-16T11:22:27.144Z,16.83
2023-05-16T11:27:30.164Z,7.45
2023-05-16T11:32:35.131Z,15.88
2023-05-16T11:37:37.829Z,5.88
2023-05-16T11:42:40.553Z,8.38
2023-05-16T11:47:45.688Z,8.90
2023-05-16T11:52:48.208Z,10.05
2023-05-16T11:57:49.045Z,7.18
2023-05-16T12:02:52.138Z,11.00
2023-05-16T12:07:54.419Z,9.77
2023-05-16T12:12:56.308Z,9.93
2023-05-16T12:17:58.980Z,7.90
2023-05-16T12:22:59.921Z,6.07
2023-05-16T12:28:02.334Z,8.95
2023-05-16T12:33:09.355Z,8.07
2023-05-16T12:38:14.094Z,6.38
2023-05-16T12:43:16.868Z,9.57
2023-05-16T12:48:19.325Z,5.18
2023-05-16T12:53:20.212Z,6.50
2023-05-16T12:58:21.110Z,8.25
2023-05-16T13:03:23.214Z,8.27
2023-05-16T13:08:24.034Z,7.20
2023-05-16T13:13:35.343Z,7.88
2023-05-16T13:18:38.439Z,6.63
2023-05-16T13:23:39.138Z,9.30
2023-05-16T13:28:39.890Z,5.15
2023-05-16T13:33:41.955Z,8.68
2023-05-16T13:38:42.758Z,6.20
2023-05-16T13:43:43.439Z,4.80
2023-05-16T13:48:45.483Z,5.80
2023-05-16T13:53:46.206Z,4.68
2023-05-16T14:03:54.903Z,7.63
2023-05-16T14:08:55.851Z,9.38
2023-05-16T14:13:56.873Z,5.13
2023-05-16T14:18:59.033Z,5.68
2023-05-16T14:24:00.111Z,8.98
2023-05-16T14:29:00.838Z,5.53
2023-05-16T14:34:03.072Z,5.68
2023-05-16T14:39:04.190Z,7.20
2023-05-16T14:44:05.245Z,6.80
2023-05-16T14:49:07.376Z,10.38
2023-05-16T14:54:08.572Z,9.10
2023-05-16T14:59:09.368Z,9.20
2023-05-16T15:04:11.552Z,7.80
2023-05-16T15:09:12.311Z,6.82
2023-05-16T15:14:13.405Z,7.53
2023-05-16T15:19:15.522Z,9.18
2023-05-16T15:24:16.686Z,8.80
2023-05-16T15:29:20.064Z,9.98
2023-05-16T15:34:22.203Z,7.00
2023-05-16T15:39:25.834Z,8.02
2023-05-16T15:44:26.553Z,13.13
2023-05-16T15:49:28.865Z,10.88
2023-05-16T15:54:29.724Z,8.10
2023-05-16T15:59:30.421Z,11.20
2023-05-16T16:04:32.703Z,6.40
2023-05-16T16:09:33.547Z,8.98
2023-05-16T16:14:34.333Z,7.30
2023-05-16T16:19:36.538Z,7.10
2023-05-16T16:24:37.285Z,8.35
2023-05-16T16:29:37.982Z,7.15
2023-05-16T16:34:40.063Z,7.70
2023-05-16T16:39:40.878Z,11.73
2023-05-16T16:44:41.580Z,6.38
2023-05-16T16:49:43.642Z,11.05
2023-05-16T16:54:45.114Z,5.53
2023-05-16T16:59:46.669Z,13.43
2023-05-16T17:04:49.179Z,8.23
2023-05-16T17:09:49.944Z,9.18
2023-05-16T17:14:51.820Z,8.15
2023-05-16T17:19:54.195Z,11.13
2023-05-16T17:24:54.901Z,5.22
2023-05-16T17:29:55.652Z,10.70
2023-05-16T17:34:57.687Z,14.35
2023-05-16T17:39:58.584Z,9.48
2023-05-16T17:45:03.545Z,11.45
2023-05-16T17:50:08.768Z,13.20
2023-05-16T17:55:11.115Z,5.95
2023-05-16T18:00:14.973Z,6.38
2023-05-16T18:05:17.414Z,10.85
2023-05-16T18:10:18.299Z,7.30
2023-05-16T18:15:19.530Z,11.95
2023-05-16T18:20:21.945Z,7.78
2023-05-16T18:25:22.776Z,9.35
2023-05-16T18:30:23.604Z,8.80
2023-05-16T18:35:27.603Z,10.30
2023-05-16T18:40:28.872Z,9.95
2023-05-16T18:45:30.233Z,8.95
2023-05-16T18:50:32.701Z,6.63
2023-05-16T18:55:33.870Z,8.60
2023-05-16T19:00:34.715Z,14.65
2023-05-16T19:05:37.465Z,8.95
2023-05-16T19:10:41.552Z,14.35
2023-05-16T19:15:42.287Z,7.75
2023-05-16T19:20:45.584Z,11.45
2023-05-16T19:25:49.033Z,9.15
2023-05-16T19:30:49.908Z,14.23
2023-05-16T19:35:53.712Z,12.48
2023-05-16T19:40:54.685Z,6.72
2023-05-16T19:45:55.427Z,13.20
2023-05-16T19:50:57.541Z,13.80
2023-05-16T19:55:58.412Z,16.05
2023-05-16T20:00:59.144Z,17.45
2023-05-16T20:06:10.200Z,12.35
2023-05-16T20:11:12.017Z,11.45
2023-05-16T20:16:12.790Z,12.82
2023-05-16T20:21:14.825Z,7.80
2023-05-16T20:26:15.773Z,11.52
2023-05-16T20:31:16.608Z,10.30
2023-05-16T20:36:18.816Z,8.55
2023-05-16T20:41:19.534Z,7.97
2023-05-16T20:46:20.282Z,7.53
2023-05-16T20:51:22.423Z,8.10
2023-05-16T20:56:23.530Z,6.95
2023-05-16T21:01:24.256Z,8.88
2023-05-16T21:06:26.330Z,12.13
2023-05-16T21:11:27.634Z,6.35
2023-05-16T21:16:29.883Z,10.68
2023-05-16T21:21:32.021Z,8.10
2023-05-16T21:26:32.723Z,8.50
2023-05-16T21:31:33.433Z,8.95
2023-05-16T21:36:35.863Z,12.57
2023-05-16T21:41:36.596Z,8.07
2023-05-16T21:46:37.372Z,8.18
2023-05-16T21:51:39.467Z,10.90
2023-05-16T21:56:40.233Z,4.43
2023-05-16T22:01:40.957Z,6.43
2023-05-16T22:06:43.089Z,5.60
2023-05-16T22:11:43.819Z,11.20
2023-05-16T22:16:44.573Z,5.15
2023-05-16T22:21:46.602Z,7.63
2023-05-16T22:26:47.461Z,10.23
2023-05-16T22:31:48.195Z,3.75
2023-05-16T22:36:50.270Z,4.85
2023-05-16T22:41:51.493Z,5.32
2023-05-16T22:46:52.196Z,10.02
2023-05-16T22:51:54.243Z,5.22
2023-05-16T22:56:54.968Z,9.43
2023-05-16T23:01:55.657Z,6.43
2023-05-16T23:06:57.687Z,7.22
2023-05-16T23:11:59.200Z,8.32
2023-05-16T23:16:59.994Z,3.67
2023-05-16T23:22:03.436Z,11.77
2023-05-16T23:27:04.159Z,6.85
2023-05-16T23:32:05.211Z,5.75
2023-05-16T23:37:07.315Z,5.88
2023-05-16T23:42:08.112Z,8.82
2023-05-16T23:47:09.378Z,5.57
2023-05-16T23:52:11.417Z,4.32
2023-05-16T23:57:12.124Z,3.92
